createdAt,value
2023-04-21T00:00:26.581Z,7.40
2023-04-21T00:02:54.650Z,7.27
2023-04-21T00:05:22.728Z,7.21
2023-04-21T00:07:50.781Z,7.19
2023-04-21T00:10:18.533Z,7.16
2023-04-21T00:12:46.284Z,7.07
2023-04-21T00:15:14.131Z,7.03
2023-04-21T00:17:42.282Z,7.02
2023-04-21T00:20:10.778Z,6.94
2023-04-21T00:22:39.047Z,6.87
2023-04-21T00:25:07.004Z,6.80
2023-04-21T00:27:35.017Z,6.77
2023-04-21T00:30:02.890Z,6.84
2023-04-21T00:32:31.088Z,6.88
2023-04-21T00:34:59.676Z,6.92
2023-04-21T00:37:27.651Z,6.96
2023-04-21T00:39:55.388Z,7.04
2023-04-21T00:42:23.167Z,7.06
2023-04-21T00:44:52.244Z,7.09
2023-04-21T00:47:20.012Z,7.00
2023-04-21T00:49:47.798Z,6.84
2023-04-21T00:52:15.759Z,6.73
2023-04-21T00:54:43.622Z,6.69
2023-04-21T00:57:11.653Z,6.68
2023-04-21T00:59:39.569Z,6.80
2023-04-21T01:02:07.905Z,6.90
2023-04-21T01:04:39.597Z,6.86
2023-04-21T01:07:08.690Z,6.76
2023-04-21T01:09:36.462Z,6.76
2023-04-21T01:12:06.737Z,6.79
2023-04-21T01:14:38.754Z,6.89
2023-04-21T01:17:07.933Z,6.93
2023-04-21T01:19:39.412Z,6.96
2023-04-21T01:22:11.202Z,6.95
2023-04-21T01:24:43.155Z,6.96
2023-04-21T01:27:19.848Z,6.91
2023-04-21T01:29:49.406Z,6.91
2023-04-21T01:32:18.979Z,6.95
2023-04-21T01:34:47.433Z,6.95
2023-04-21T01:37:16.457Z,6.95
2023-04-21T01:39:51.466Z,6.88
2023-04-21T01:42:19.286Z,6.87
2023-04-21T01:44:47.265Z,6.78
2023-04-21T01:47:18.545Z,6.72
2023-04-21T01:49:46.835Z,6.79
2023-04-21T01:52:14.605Z,6.84
2023-04-21T01:54:42.631Z,6.74
2023-04-21T01:57:10.527Z,6.58
2023-04-21T01:59:38.730Z,6.44
2023-04-21T02:02:06.756Z,6.35
2023-04-21T02:04:35.110Z,6.27
2023-04-21T02:07:03.260Z,6.21
2023-04-21T02:09:31.753Z,6.18
2023-04-21T02:12:00.432Z,6.15
2023-04-21T02:14:28.342Z,6.14
2023-04-21T02:16:57.196Z,6.15
2023-04-21T02:19:25.292Z,6.19
2023-04-21T02:21:55.990Z,6.36
2023-04-21T02:24:24.334Z,6.36
2023-04-21T02:26:53.895Z,6.28
2023-04-21T02:29:22.020Z,6.20
2023-04-21T02:32:00.615Z,6.15
2023-04-21T02:34:31.490Z,6.11
2023-04-21T02:36:59.897Z,6.09
2023-04-21T02:39:27.813Z,6.11
2023-04-21T02:41:55.797Z,6.14
2023-04-21T02:44:23.691Z,6.23
2023-04-21T02:46:51.554Z,6.27
2023-04-21T02:49:19.621Z,6.34
2023-04-21T02:51:48.045Z,6.40
2023-04-21T02:54:15.992Z,6.49
2023-04-21T02:56:44.138Z,6.61
2023-04-21T02:59:16.190Z,6.62
2023-04-21T03:01:44.192Z,6.53
2023-04-21T03:04:12.956Z,6.48
2023-04-21T03:06:41.141Z,6.50
2023-04-21T03:09:09.154Z,6.47
2023-04-21T03:11:37.021Z,6.44
2023-04-21T03:14:04.851Z,6.42
2023-04-21T03:16:32.705Z,6.37
2023-04-21T03:19:00.569Z,6.32
2023-04-21T03:21:28.544Z,6.28
2023-04-21T03:23:56.335Z,6.29
2023-04-21T03:26:24.174Z,6.32
2023-04-21T03:28:51.891Z,6.32
2023-04-21T03:31:19.700Z,6.31
2023-04-21T03:33:47.624Z,6.32
2023-04-21T03:36:16.270Z,6.33
2023-04-21T03:38:44.062Z,6.34
2023-04-21T03:41:11.957Z,6.36
2023-04-21T03:43:39.804Z,6.38
2023-04-21T03:46:08.060Z,6.41
2023-04-21T03:48:36.133Z,6.42
2023-04-21T03:51:04.067Z,6.44
2023-04-21T03:53:31.934Z,6.45
2023-04-21T03:55:59.652Z,6.45
2023-04-21T03:58:27.763Z,6.44
2023-04-21T04:00:55.672Z,6.41
2023-04-21T04:03:23.906Z,6.39
2023-04-21T04:05:52.082Z,6.38
2023-04-21T04:08:20.005Z,6.39
2023-04-21T04:10:47.846Z,6.40
2023-04-21T04:13:16.014Z,6.39
2023-04-21T04:15:43.850Z,6.39
2023-04-21T04:18:11.744Z,6.39
2023-04-21T04:20:39.532Z,6.37
2023-04-21T04:23:07.307Z,6.38
2023-04-21T04:25:35.362Z,6.42
2023-04-21T04:28:03.182Z,6.42
2023-04-21T04:30:33.260Z,6.44
2023-04-21T04:33:01.443Z,6.46
2023-04-21T04:35:29.469Z,6.48
2023-04-21T04:37:57.937Z,6.50
2023-04-21T04:40:25.816Z,6.52
2023-04-21T04:42:54.941Z,6.56
2023-04-21T04:45:22.919Z,6.58
2023-04-21T04:47:50.869Z,6.60
2023-04-21T04:50:18.735Z,6.64
2023-04-21T04:52:47.541Z,6.66
2023-04-21T04:55:15.433Z,6.67
2023-04-21T04:57:43.233Z,6.69
2023-04-21T05:00:11.870Z,6.72
2023-04-21T05:02:41.018Z,6.76
2023-04-21T05:05:09.264Z,6.81
2023-04-21T05:07:37.738Z,6.91
2023-04-21T05:10:06.162Z,7.03
2023-04-21T05:12:35.176Z,7.16
2023-04-21T05:15:03.474Z,7.32
2023-04-21T05:17:33.140Z,7.48
2023-04-21T05:20:01.022Z,7.64
2023-04-21T05:22:29.055Z,7.81
2023-04-21T05:24:56.918Z,7.98
2023-04-21T05:27:24.760Z,8.14
2023-04-21T05:29:54.762Z,8.29
2023-04-21T05:32:22.957Z,8.47
2023-04-21T05:34:50.983Z,8.66
2023-04-21T05:37:18.800Z,8.80
2023-04-21T05:39:46.601Z,8.91
2023-04-21T05:42:14.383Z,9.02
2023-04-21T05:44:42.167Z,9.15
2023-04-21T05:47:10.013Z,9.30
2023-04-21T05:49:37.717Z,9.39
2023-04-21T05:52:05.662Z,9.50
2023-04-21T05:54:33.743Z,9.58
2023-04-21T05:57:01.723Z,9.65
2023-04-21T05:59:29.693Z,9.73
2023-04-21T06:01:57.692Z,9.82
2023-04-21T06:04:25.855Z,9.90
2023-04-21T06:06:54.190Z,9.95
2023-04-21T06:09:22.453Z,9.96
2023-04-21T06:11:50.940Z,10.06
2023-04-21T06:14:19.215Z,10.13
2023-04-21T06:16:47.445Z,10.24
2023-04-21T06:19:15.357Z,10.36
2023-04-21T06:21:43.249Z,10.40
2023-04-21T06:24:11.032Z,10.45
2023-04-21T06:26:38.781Z,10.58
2023-04-21T06:29:07.532Z,10.70
2023-04-21T06:31:35.772Z,10.79
2023-04-21T06:34:03.650Z,10.88
2023-04-21T06:36:33.081Z,10.98
2023-04-21T06:39:00.951Z,11.01
2023-04-21T06:41:28.732Z,11.07
2023-04-21T06:43:56.627Z,11.11
2023-04-21T06:46:24.468Z,11.16
2023-04-21T06:48:52.420Z,11.16
2023-04-21T06:51:20.132Z,11.15
2023-04-21T06:53:47.924Z,11.21
2023-04-21T06:56:16.326Z,11.26
2023-04-21T06:58:44.214Z,11.34
2023-04-21T07:01:12.144Z,11.42
2023-04-21T07:03:40.256Z,11.52
2023-04-21T07:06:08.110Z,11.62
2023-04-21T07:08:36.007Z,11.72
2023-04-21T07:11:04.079Z,11.83
2023-04-21T07:13:31.942Z,11.90
2023-04-21T07:15:59.923Z,12.01
2023-04-21T07:18:27.735Z,12.09
2023-04-21T07:20:55.531Z,12.14
2023-04-21T07:23:23.298Z,12.22
2023-04-21T07:25:51.791Z,12.26
2023-04-21T07:28:47.751Z,12.31
2023-04-21T07:31:15.801Z,12.43
2023-04-21T07:33:43.697Z,12.52
2023-04-21T07:36:11.820Z,12.64
2023-04-21T07:38:43.463Z,12.65
2023-04-21T07:41:12.309Z,12.61
2023-04-21T07:43:41.206Z,12.63
2023-04-21T07:46:09.661Z,12.70
2023-04-21T07:48:37.673Z,12.80
2023-04-21T07:51:05.783Z,12.85
2023-04-21T07:53:34.513Z,12.86
2023-04-21T07:56:02.782Z,12.81
2023-04-21T07:58:31.086Z,12.85
2023-04-21T08:00:58.844Z,12.98
2023-04-21T08:03:26.892Z,13.15
2023-04-21T08:05:55.206Z,13.31
2023-04-21T08:08:23.301Z,13.43
2023-04-21T08:10:51.151Z,13.48
2023-04-21T08:13:21.050Z,13.54
2023-04-21T08:15:48.976Z,13.58
2023-04-21T08:18:22.073Z,13.62
2023-04-21T08:20:52.438Z,13.73
2023-04-21T08:23:20.427Z,13.83
2023-04-21T08:25:48.269Z,13.89
2023-04-21T08:28:16.093Z,13.87
2023-04-21T08:30:43.789Z,13.79
2023-04-21T08:33:13.808Z,13.72
2023-04-21T08:35:54.803Z,13.55
2023-04-21T08:38:29.701Z,13.41
2023-04-21T08:40:59.001Z,13.37
2023-04-21T08:43:27.026Z,13.43
2023-04-21T08:45:55.020Z,13.49
2023-04-21T08:48:25.801Z,13.49
2023-04-21T08:50:53.961Z,13.50
2023-04-21T08:53:22.395Z,13.61
2023-04-21T08:56:07.698Z,13.65
2023-04-21T08:58:38.428Z,13.61
2023-04-21T09:01:06.484Z,13.61
2023-04-21T09:03:34.592Z,13.61
2023-04-21T09:06:03.073Z,13.63
2023-04-21T09:08:32.555Z,13.62
2023-04-21T09:11:01.446Z,13.63
2023-04-21T09:13:36.156Z,13.64
2023-04-21T09:16:08.190Z,13.58
2023-04-21T09:18:37.242Z,13.49
2023-04-21T09:21:09.569Z,13.46
2023-04-21T09:23:44.332Z,13.45
2023-04-21T09:26:12.123Z,13.43
2023-04-21T09:28:44.007Z,13.38
2023-04-21T09:31:16.982Z,13.38
2023-04-21T09:33:58.821Z,13.39
2023-04-21T09:36:29.182Z,13.40
2023-04-21T09:39:20.616Z,13.42
2023-04-21T09:41:46.112Z,13.45
2023-04-21T09:44:13.854Z,13.46
2023-04-21T09:46:43.656Z,13.46
2023-04-21T09:49:12.410Z,13.39
2023-04-21T09:52:05.872Z,13.29
2023-04-21T09:54:30.360Z,13.26
2023-04-21T09:57:02.565Z,13.21
2023-04-21T09:59:32.487Z,13.23
2023-04-21T10:02:00.335Z,13.23
2023-04-21T10:04:29.161Z,13.20
2023-04-21T10:06:58.775Z,13.17
2023-04-21T10:09:27.804Z,13.19
2023-04-21T10:11:55.807Z,13.27
2023-04-21T10:14:25.552Z,13.33
2023-04-21T10:16:57.450Z,13.30
2023-04-21T10:19:26.072Z,13.19
2023-04-21T10:22:01.926Z,13.11
2023-04-21T10:24:30.709Z,13.10
2023-04-21T10:27:02.371Z,13.11
2023-04-21T10:29:40.212Z,13.19
2023-04-21T10:32:11.874Z,13.27
2023-04-21T10:34:40.060Z,13.25
2023-04-21T10:37:09.059Z,13.23
2023-04-21T10:39:37.511Z,13.23
2023-04-21T10:42:20.908Z,13.22
2023-04-21T10:44:57.891Z,13.20
2023-04-21T10:47:27.112Z,13.23
2023-04-21T10:49:58.490Z,13.30
2023-04-21T10:52:35.967Z,13.46
2023-04-21T10:55:07.696Z,13.56
2023-04-21T10:57:36.299Z,13.59
2023-04-21T11:00:09.065Z,13.52
2023-04-21T11:02:39.842Z,13.46
2023-04-21T11:05:09.455Z,13.49
2023-04-21T11:07:38.460Z,13.55
2023-04-21T11:10:07.760Z,13.64
2023-04-21T11:12:38.261Z,13.75
2023-04-21T11:15:07.832Z,13.81
2023-04-21T11:17:38.183Z,13.84
2023-04-21T11:20:06.931Z,13.87
2023-04-21T11:22:36.076Z,13.94
2023-04-21T11:25:04.562Z,14.02
2023-04-21T11:27:32.429Z,14.01
2023-04-21T11:30:02.050Z,13.97
2023-04-21T11:32:30.062Z,13.84
2023-04-21T11:34:57.965Z,13.83
2023-04-21T11:37:27.160Z,13.87
2023-04-21T11:39:58.729Z,13.84
2023-04-21T11:42:26.767Z,13.78
2023-04-21T11:44:55.936Z,13.71
2023-04-21T11:47:25.265Z,13.63
2023-04-21T11:49:56.794Z,13.53
2023-04-21T11:52:24.708Z,13.51
2023-04-21T11:55:17.970Z,13.54
2023-04-21T11:57:46.456Z,13.59
2023-04-21T12:00:15.505Z,13.62
2023-04-21T12:02:43.517Z,13.58
2023-04-21T12:05:12.169Z,13.54
2023-04-21T12:07:44.052Z,13.52
2023-04-21T12:10:15.636Z,13.56
2023-04-21T12:12:44.062Z,13.59
2023-04-21T12:15:13.053Z,13.61
2023-04-21T12:17:45.396Z,13.62
2023-04-21T12:20:13.875Z,13.67
2023-04-21T12:22:42.084Z,13.71
2023-04-21T12:25:09.850Z,13.74
2023-04-21T12:27:37.754Z,13.84
2023-04-21T12:30:06.127Z,13.96
2023-04-21T12:32:34.436Z,14.08
2023-04-21T12:35:04.239Z,14.13
2023-04-21T12:37:33.013Z,14.16
2023-04-21T12:40:00.997Z,14.15
2023-04-21T12:42:28.988Z,14.16
2023-04-21T12:44:56.952Z,14.18
2023-04-21T12:47:25.057Z,14.24
2023-04-21T12:49:53.500Z,14.27
2023-04-21T12:52:21.526Z,14.27
2023-04-21T12:54:49.562Z,14.23
2023-04-21T12:57:17.732Z,14.22
2023-04-21T12:59:46.540Z,14.28
2023-04-21T13:02:14.592Z,14.28
2023-04-21T13:04:42.768Z,14.35
2023-04-21T13:07:11.102Z,14.52
2023-04-21T13:09:39.179Z,14.58
2023-04-21T13:12:07.191Z,14.62
2023-04-21T13:14:35.000Z,14.65
2023-04-21T13:17:02.970Z,14.67
2023-04-21T13:19:31.449Z,14.69
2023-04-21T13:21:59.406Z,14.67
2023-04-21T13:24:27.270Z,14.68
2023-04-21T13:26:56.031Z,14.75
2023-04-21T13:29:23.923Z,14.81
2023-04-21T13:31:51.755Z,14.81
2023-04-21T13:34:19.535Z,14.78
2023-04-21T13:36:47.431Z,14.78
2023-04-21T13:39:15.837Z,14.81
2023-04-21T13:41:43.676Z,14.74
2023-04-21T13:44:11.663Z,14.65
2023-04-21T13:46:39.490Z,14.59
2023-04-21T13:49:07.525Z,14.47
2023-04-21T13:51:35.706Z,14.41
2023-04-21T13:54:03.567Z,14.35
2023-04-21T13:56:31.388Z,14.33
2023-04-21T13:58:59.778Z,14.35
2023-04-21T14:01:27.715Z,14.40
2023-04-21T14:03:56.946Z,14.41
2023-04-21T14:06:25.487Z,14.41
2023-04-21T14:08:53.352Z,14.42
2023-04-21T14:11:21.723Z,14.42
2023-04-21T14:14:07.636Z,14.41
2023-04-21T14:16:36.794Z,14.38
2023-04-21T14:19:04.806Z,14.35
2023-04-21T14:21:33.358Z,14.36
2023-04-21T14:24:01.210Z,14.37
2023-04-21T14:26:29.073Z,14.37
2023-04-21T14:28:56.867Z,14.36
2023-04-21T14:31:24.722Z,14.37
2023-04-21T14:33:52.642Z,14.40
2023-04-21T14:36:20.874Z,14.44
2023-04-21T14:38:48.647Z,14.47
2023-04-21T14:41:16.479Z,14.48
2023-04-21T14:43:44.349Z,14.48
2023-04-21T14:46:16.173Z,14.48
2023-04-21T14:48:44.775Z,14.46
2023-04-21T14:51:12.764Z,14.45
2023-04-21T14:53:40.900Z,14.42
2023-04-21T14:56:08.860Z,14.40
2023-04-21T14:58:36.978Z,14.39
2023-04-21T15:01:05.088Z,14.39
2023-04-21T15:03:33.278Z,14.40
2023-04-21T15:06:01.333Z,14.34
2023-04-21T15:08:29.657Z,14.31
2023-04-21T15:10:57.438Z,14.29
2023-04-21T15:13:26.133Z,14.24
2023-04-21T15:15:53.960Z,14.19
2023-04-21T15:18:21.909Z,14.19
2023-04-21T15:20:49.878Z,14.19
2023-04-21T15:23:18.219Z,14.21
2023-04-21T15:25:46.246Z,14.20
2023-04-21T15:28:14.192Z,14.17
2023-04-21T15:30:42.172Z,14.16
2023-04-21T15:33:11.733Z,14.16
2023-04-21T15:35:39.819Z,14.15
2023-04-21T15:38:07.599Z,14.13
2023-04-21T15:40:41.143Z,14.13
2023-04-21T15:43:14.481Z,14.12
2023-04-21T15:45:43.097Z,14.07
2023-04-21T15:48:12.965Z,14.02
2023-04-21T15:50:40.818Z,14.00
2023-04-21T15:53:08.845Z,13.99
2023-04-21T15:55:36.828Z,13.97
2023-04-21T15:58:05.261Z,13.96
2023-04-21T16:00:33.345Z,13.92
2023-04-21T16:03:01.428Z,13.89
2023-04-21T16:05:29.530Z,13.86
2023-04-21T16:07:57.772Z,13.85
2023-04-21T16:10:27.784Z,13.82
2023-04-21T16:12:55.916Z,13.76
2023-04-21T16:15:24.967Z,13.72
2023-04-21T16:17:53.498Z,13.70
2023-04-21T16:20:21.447Z,13.67
2023-04-21T16:22:50.508Z,13.64
2023-04-21T16:25:19.441Z,13.61
2023-04-21T16:27:47.558Z,13.57
2023-04-21T16:30:15.519Z,13.56
2023-04-21T16:32:43.448Z,13.54
2023-04-21T16:35:11.521Z,13.50
2023-04-21T16:37:42.614Z,13.46
2023-04-21T16:40:11.110Z,13.44
2023-04-21T16:42:39.600Z,13.40
2023-04-21T16:45:08.242Z,13.34
2023-04-21T16:47:41.262Z,13.31
2023-04-21T16:50:10.453Z,13.30
2023-04-21T16:52:38.791Z,13.27
2023-04-21T16:55:06.973Z,13.25
2023-04-21T16:57:35.248Z,13.17
2023-04-21T17:00:05.878Z,13.06
2023-04-21T17:02:34.658Z,13.02
2023-04-21T17:05:02.766Z,12.98
2023-04-21T17:07:34.278Z,12.96
2023-04-21T17:10:02.334Z,12.92
2023-04-21T17:12:30.501Z,12.91
2023-04-21T17:14:58.317Z,12.89
2023-04-21T17:17:26.506Z,12.87
2023-04-21T17:19:54.685Z,12.83
2023-04-21T17:22:22.592Z,12.79
2023-04-21T17:24:53.748Z,12.77
2023-04-21T17:27:22.430Z,12.76
2023-04-21T17:29:51.178Z,12.75
2023-04-21T17:32:19.744Z,12.71
2023-04-21T17:34:47.725Z,12.66
2023-04-21T17:37:15.707Z,12.61
2023-04-21T17:39:43.516Z,12.62
2023-04-21T17:42:11.390Z,12.62
2023-04-21T17:44:41.046Z,12.61
2023-04-21T17:47:09.096Z,12.57
2023-04-21T17:49:36.977Z,12.54
2023-04-21T17:52:05.920Z,12.52
2023-04-21T17:54:33.900Z,12.49
2023-04-21T17:57:01.982Z,12.47
2023-04-21T17:59:30.351Z,12.45
2023-04-21T18:01:59.145Z,12.43
2023-04-21T18:04:29.916Z,12.42
2023-04-21T18:06:59.031Z,12.40
2023-04-21T18:09:27.018Z,12.38
2023-04-21T18:11:54.817Z,12.35
2023-04-21T18:14:23.301Z,12.32
2023-04-21T18:16:51.076Z,12.30
2023-04-21T18:19:19.457Z,12.28
2023-04-21T18:21:47.260Z,12.26
2023-04-21T18:24:15.361Z,12.24
2023-04-21T18:26:43.348Z,12.17
2023-04-21T18:29:11.271Z,12.11
2023-04-21T18:31:39.490Z,12.05
2023-04-21T18:34:08.731Z,12.00
2023-04-21T18:36:38.368Z,11.96
2023-04-21T18:39:06.528Z,11.94
2023-04-21T18:41:34.317Z,11.92
2023-04-21T18:44:02.452Z,11.90
2023-04-21T18:46:30.479Z,11.87
2023-04-21T18:48:58.376Z,11.83
2023-04-21T18:51:27.433Z,11.80
2023-04-21T18:53:55.185Z,11.79
2023-04-21T18:56:24.685Z,11.78
2023-04-21T18:58:52.734Z,11.76
2023-04-21T19:01:20.541Z,11.75
2023-04-21T19:03:48.573Z,11.73
2023-04-21T19:06:19.400Z,11.68
2023-04-21T19:08:47.158Z,11.67
2023-04-21T19:11:15.862Z,11.66
2023-04-21T19:13:43.699Z,11.66
2023-04-21T19:16:11.650Z,11.64
2023-04-21T19:18:39.662Z,11.62
2023-04-21T19:21:10.578Z,11.64
2023-04-21T19:23:38.514Z,11.64
2023-04-21T19:26:08.456Z,11.61
2023-04-21T19:28:36.687Z,11.59
2023-04-21T19:31:04.615Z,11.60
2023-04-21T19:33:32.961Z,11.56
2023-04-21T19:36:01.283Z,11.54
2023-04-21T19:38:29.381Z,11.48
2023-04-21T19:40:57.156Z,11.42
2023-04-21T19:43:25.189Z,11.38
2023-04-21T19:45:53.116Z,11.34
2023-04-21T19:48:21.474Z,11.32
2023-04-21T19:50:49.365Z,11.31
2023-04-21T19:53:17.565Z,11.26
2023-04-21T19:55:46.443Z,11.22
2023-04-21T19:58:19.774Z,11.20
2023-04-21T20:00:56.421Z,11.19
2023-04-21T20:03:24.411Z,11.18
2023-04-21T20:05:52.780Z,11.15
2023-04-21T20:08:20.731Z,11.13
2023-04-21T20:10:49.337Z,11.12
2023-04-21T20:13:17.364Z,11.12
2023-04-21T20:15:45.320Z,11.12
2023-04-21T20:18:13.091Z,11.12
2023-04-21T20:20:41.144Z,11.09
2023-04-21T20:23:09.474Z,11.08
2023-04-21T20:25:37.331Z,11.10
2023-04-21T20:28:05.132Z,11.08
2023-04-21T20:30:32.938Z,11.07
2023-04-21T20:33:01.111Z,11.06
2023-04-21T20:35:30.577Z,11.04
2023-04-21T20:38:01.065Z,11.03
2023-04-21T20:40:30.180Z,11.03
2023-04-21T20:42:57.985Z,11.01
2023-04-21T20:45:26.259Z,11.01
2023-04-21T20:47:54.418Z,11.00
2023-04-21T20:50:23.540Z,10.98
2023-04-21T20:52:51.606Z,10.93
2023-04-21T20:55:19.431Z,10.88
2023-04-21T20:57:47.211Z,10.86
2023-04-21T21:00:15.739Z,10.85
2023-04-21T21:02:44.295Z,10.83
2023-04-21T21:05:12.296Z,10.82
2023-04-21T21:07:40.315Z,10.82
2023-04-21T21:10:10.942Z,10.82
2023-04-21T21:12:39.537Z,10.80
2023-04-21T21:15:07.983Z,10.78
2023-04-21T21:17:35.797Z,10.75
2023-04-21T21:20:03.656Z,10.76
2023-04-21T21:22:31.782Z,10.76
2023-04-21T21:25:00.214Z,10.75
2023-04-21T21:27:27.963Z,10.70
2023-04-21T21:29:55.784Z,10.69
2023-04-21T21:32:23.731Z,10.66
2023-04-21T21:34:52.328Z,10.64
2023-04-21T21:37:20.342Z,10.64
2023-04-21T21:39:48.138Z,10.64
2023-04-21T21:42:15.994Z,10.64
2023-04-21T21:44:43.985Z,10.62
2023-04-21T21:47:11.766Z,10.60
2023-04-21T21:49:39.863Z,10.58
2023-04-21T21:52:07.977Z,10.58
2023-04-21T21:54:36.115Z,10.58
2023-04-21T21:57:03.888Z,10.59
2023-04-21T21:59:31.713Z,10.58
2023-04-21T22:01:59.562Z,10.57
2023-04-21T22:04:27.509Z,10.55
2023-04-21T22:06:55.495Z,10.52
2023-04-21T22:09:23.240Z,10.47
2023-04-21T22:11:51.329Z,10.43
2023-04-21T22:14:23.513Z,10.40
2023-04-21T22:16:52.761Z,10.38
2023-04-21T22:19:20.916Z,10.34
2023-04-21T22:21:48.736Z,10.32
2023-04-21T22:24:16.527Z,10.29
2023-04-21T22:26:44.461Z,10.25
2023-04-21T22:29:12.955Z,10.21
2023-04-21T22:31:40.827Z,10.17
2023-04-21T22:34:09.186Z,10.14
2023-04-21T22:36:37.486Z,10.11
2023-04-21T22:39:05.263Z,10.07
2023-04-21T22:41:33.078Z,10.06
2023-04-21T22:44:00.948Z,10.03
2023-04-21T22:46:32.169Z,9.99
2023-04-21T22:49:02.306Z,9.90
2023-04-21T22:51:32.626Z,9.75
2023-04-21T22:54:00.597Z,9.74
2023-04-21T22:56:29.465Z,9.67
2023-04-21T22:58:57.524Z,9.58
2023-04-21T23:01:25.413Z,9.61
2023-04-21T23:03:53.724Z,9.60
2023-04-21T23:06:21.684Z,9.59
2023-04-21T23:08:49.917Z,9.58
2023-04-21T23:11:17.823Z,9.59
2023-04-21T23:13:45.901Z,9.59
2023-04-21T23:16:13.593Z,9.60
2023-04-21T23:18:41.637Z,9.62
2023-04-21T23:21:09.399Z,9.63
2023-04-21T23:23:37.205Z,9.61
2023-04-21T23:26:05.706Z,9.55
2023-04-21T23:28:33.990Z,9.48
2023-04-21T23:31:01.747Z,9.43
2023-04-21T23:33:29.649Z,9.38
2023-04-21T23:35:57.641Z,9.34
2023-04-21T23:38:25.739Z,9.30
2023-04-21T23:40:53.613Z,9.27
2023-04-21T23:43:21.701Z,9.22
2023-04-21T23:45:49.583Z,9.18
2023-04-21T23:48:17.565Z,9.17
2023-04-21T23:50:45.434Z,9.14
2023-04-21T23:53:13.366Z,9.11
2023-04-21T23:55:41.125Z,9.06
2023-04-21T23:58:08.901Z,9.02
